createdAt,value
2023-04-13T00:00:11.139Z,9.20
2023-04-13T00:02:40.104Z,9.20
2023-04-13T00:05:08.108Z,9.20
2023-04-13T00:07:34.730Z,9.10
2023-04-13T00:10:04.100Z,9.10
2023-04-13T00:12:30.723Z,9.10
2023-04-13T00:14:57.636Z,9.80
2023-04-13T00:17:25.845Z,9.40
2023-04-13T00:19:57.627Z,9.00
2023-04-13T00:22:24.681Z,8.90
2023-04-13T00:24:54.454Z,9.60
2023-04-13T00:27:21.842Z,9.00
2023-04-13T00:29:48.393Z,9.00
2023-04-13T00:32:14.989Z,9.50
2023-04-13T00:34:41.711Z,8.90
2023-04-13T00:37:08.276Z,8.90
2023-04-13T00:39:35.011Z,8.90
2023-04-13T00:42:02.135Z,9.00
2023-04-13T00:44:28.687Z,8.80
2023-04-13T00:46:55.265Z,8.80
2023-04-13T00:49:22.890Z,8.80
2023-04-13T00:51:49.795Z,8.90
2023-04-13T00:54:19.382Z,8.80
2023-04-13T00:56:46.085Z,8.80
2023-04-13T00:59:12.799Z,8.80
2023-04-13T01:01:50.872Z,8.80
2023-04-13T01:04:20.455Z,8.80
2023-04-13T01:06:51.353Z,8.80
2023-04-13T01:09:20.700Z,8.70
2023-04-13T01:11:58.517Z,8.70
2023-04-13T01:14:37.678Z,8.70
2023-04-13T01:17:07.556Z,8.70
2023-04-13T01:19:51.711Z,8.70
2023-04-13T01:22:23.851Z,8.70
2023-04-13T01:25:01.984Z,8.60
2023-04-13T01:27:50.958Z,8.60
2023-04-13T01:30:19.451Z,8.60
2023-04-13T01:32:46.293Z,8.60
2023-04-13T01:35:13.306Z,8.50
2023-04-13T01:37:45.180Z,8.50
2023-04-13T01:40:13.451Z,8.50
2023-04-13T01:42:40.564Z,8.50
2023-04-13T01:45:10.488Z,8.50
2023-04-13T01:47:38.839Z,8.50
2023-04-13T01:50:29.703Z,8.40
2023-04-13T01:53:07.926Z,9.90
2023-04-13T01:55:39.882Z,8.40
2023-04-13T01:58:06.968Z,8.40
2023-04-13T02:00:36.549Z,8.40
2023-04-13T02:03:05.117Z,8.40
2023-04-13T02:05:32.688Z,8.40
2023-04-13T02:07:59.441Z,8.30
2023-04-13T02:10:26.550Z,8.40
2023-04-13T02:12:54.742Z,8.40
2023-04-13T02:15:21.668Z,8.50
2023-04-13T02:17:48.295Z,8.30
2023-04-13T02:20:15.025Z,8.90
2023-04-13T02:22:41.626Z,8.20
2023-04-13T02:25:08.642Z,8.20
2023-04-13T02:27:35.891Z,8.30
2023-04-13T02:30:02.729Z,8.40
2023-04-13T02:32:31.538Z,8.20
2023-04-13T02:34:58.663Z,8.20
2023-04-13T02:37:25.483Z,8.20
2023-04-13T02:39:52.110Z,8.20
2023-04-13T02:42:18.654Z,8.10
2023-04-13T02:44:45.494Z,8.10
2023-04-13T02:47:12.071Z,6.60
2023-04-13T02:49:38.878Z,8.10
2023-04-13T02:52:05.882Z,8.10
2023-04-13T02:54:33.202Z,9.70
2023-04-13T02:57:01.884Z,8.10
2023-04-13T02:59:28.441Z,8.10
2023-04-13T03:01:58.851Z,8.40
2023-04-13T03:04:25.714Z,8.00
2023-04-13T03:06:54.340Z,7.90
2023-04-13T03:09:21.033Z,7.90
2023-04-13T03:11:47.623Z,8.00
2023-04-13T03:14:20.985Z,8.00
2023-04-13T03:16:48.364Z,8.40
2023-04-13T03:19:16.677Z,7.90
2023-04-13T03:21:44.914Z,8.50
2023-04-13T03:24:12.473Z,7.90
2023-04-13T03:26:39.038Z,7.80
2023-04-13T03:29:05.775Z,8.20
2023-04-13T03:31:32.529Z,7.80
2023-04-13T03:33:59.295Z,6.40
2023-04-13T03:36:27.882Z,7.80
2023-04-13T03:38:54.893Z,7.80
2023-04-13T03:41:22.416Z,7.80
2023-04-13T03:43:49.307Z,7.80
2023-04-13T03:46:16.402Z,7.70
2023-04-13T03:48:43.338Z,7.80
2023-04-13T03:51:10.034Z,7.70
2023-04-13T03:53:36.731Z,7.70
2023-04-13T03:56:03.678Z,7.70
2023-04-13T03:58:30.693Z,7.70
2023-04-13T04:00:57.467Z,7.70
2023-04-13T04:03:25.606Z,7.70
2023-04-13T04:05:52.954Z,7.70
2023-04-13T04:08:19.560Z,7.60
2023-04-13T04:10:46.379Z,7.70
2023-04-13T04:13:12.967Z,7.60
2023-04-13T04:15:39.560Z,6.50
2023-04-13T04:18:06.161Z,7.70
2023-04-13T04:20:35.295Z,7.70
2023-04-13T04:23:04.889Z,7.70
2023-04-13T04:25:33.342Z,7.70
2023-04-13T04:28:02.510Z,7.70
2023-04-13T04:30:29.945Z,7.90
2023-04-13T04:32:56.973Z,7.60
2023-04-13T04:35:32.997Z,7.60
2023-04-13T04:38:03.404Z,7.60
2023-04-13T04:40:30.711Z,7.60
2023-04-13T04:42:57.791Z,7.60
2023-04-13T04:45:27.286Z,7.60
2023-04-13T04:47:57.354Z,7.60
2023-04-13T04:50:27.293Z,7.50
2023-04-13T04:52:53.950Z,8.30
2023-04-13T04:55:20.661Z,7.60
2023-04-13T04:57:47.292Z,9.00
2023-04-13T05:00:17.102Z,7.70
2023-04-13T05:02:44.398Z,7.60
2023-04-13T05:05:11.882Z,7.60
2023-04-13T05:07:38.549Z,7.70
2023-04-13T05:10:07.472Z,7.70
2023-04-13T05:12:36.051Z,7.70
2023-04-13T05:15:04.454Z,7.70
2023-04-13T05:17:31.126Z,9.10
2023-04-13T05:19:57.726Z,7.70
2023-04-13T05:22:24.362Z,8.10
2023-04-13T05:24:50.927Z,7.60
2023-04-13T05:27:17.568Z,8.50
2023-04-13T05:29:46.238Z,7.60
2023-04-13T05:32:14.098Z,7.60
2023-04-13T05:34:40.754Z,7.60
2023-04-13T05:37:07.407Z,7.70
2023-04-13T05:39:34.019Z,7.70
2023-04-13T05:42:01.334Z,7.80
2023-04-13T05:44:27.937Z,7.90
2023-04-13T05:46:54.525Z,8.10
2023-04-13T05:49:21.477Z,8.10
2023-04-13T05:51:48.300Z,8.10
2023-04-13T05:54:14.907Z,8.20
2023-04-13T05:56:41.476Z,8.20
2023-04-13T05:59:08.714Z,8.30
2023-04-13T06:01:36.444Z,8.40
2023-04-13T06:04:03.867Z,8.40
2023-04-13T06:06:30.841Z,8.50
2023-04-13T06:08:57.781Z,8.50
2023-04-13T06:11:25.832Z,8.70
2023-04-13T06:13:52.408Z,8.60
2023-04-13T06:16:19.033Z,8.70
2023-04-13T06:18:45.970Z,8.60
2023-04-13T06:21:12.548Z,9.50
2023-04-13T06:23:39.175Z,8.80
2023-04-13T06:26:06.870Z,8.90
2023-04-13T06:28:33.709Z,8.90
2023-04-13T06:31:00.451Z,9.20
2023-04-13T06:33:27.851Z,9.20
2023-04-13T06:35:54.433Z,9.80
2023-04-13T06:38:21.017Z,9.70
2023-04-13T06:40:47.600Z,10.20
2023-04-13T06:43:26.482Z,10.60
2023-04-13T06:45:59.873Z,10.90
2023-04-13T06:48:27.067Z,11.40
2023-04-13T06:50:57.171Z,11.60
2023-04-13T06:53:23.774Z,11.80
2023-04-13T06:55:50.920Z,11.80
2023-04-13T06:58:17.603Z,11.90
2023-04-13T07:00:44.223Z,12.00
2023-04-13T07:03:10.958Z,12.10
2023-04-13T07:05:38.969Z,12.20
2023-04-13T07:08:06.396Z,12.20
2023-04-13T07:10:33.055Z,12.60
2023-04-13T07:12:59.644Z,13.10
2023-04-13T07:15:26.189Z,13.60
2023-04-13T07:17:52.847Z,14.00
2023-04-13T07:20:19.395Z,14.30
2023-04-13T07:22:45.952Z,14.50
2023-04-13T07:25:12.514Z,15.50
2023-04-13T07:27:39.240Z,15.70
2023-04-13T07:30:07.242Z,15.60
2023-04-13T07:32:33.784Z,14.80
2023-04-13T07:35:01.932Z,15.60
2023-04-13T07:37:29.678Z,15.40
2023-04-13T07:39:56.296Z,15.10
2023-04-13T07:42:22.879Z,14.80
2023-04-13T07:44:49.515Z,14.60
2023-04-13T07:47:16.730Z,14.40
2023-04-13T07:49:43.440Z,14.20
2023-04-13T07:52:10.153Z,14.10
2023-04-13T07:54:36.895Z,14.20
2023-04-13T07:57:03.956Z,14.00
2023-04-13T07:59:30.847Z,13.80
2023-04-13T08:01:58.045Z,13.60
2023-04-13T08:04:24.774Z,13.40
2023-04-13T08:06:52.068Z,13.30
2023-04-13T08:09:18.597Z,13.10
2023-04-13T08:11:45.255Z,13.00
2023-04-13T08:14:12.006Z,13.10
2023-04-13T08:16:38.639Z,13.20
2023-04-13T08:19:05.279Z,13.30
2023-04-13T08:21:32.797Z,13.40
2023-04-13T08:23:59.379Z,13.40
2023-04-13T08:26:26.336Z,13.30
2023-04-13T08:28:53.876Z,13.20
2023-04-13T08:31:20.590Z,13.20
2023-04-13T08:33:47.316Z,13.00
2023-04-13T08:36:14.029Z,12.80
2023-04-13T08:38:41.038Z,12.80
2023-04-13T08:41:09.398Z,12.90
2023-04-13T08:43:36.331Z,12.90
2023-04-13T08:46:04.305Z,13.00
2023-04-13T08:48:42.226Z,13.30
2023-04-13T08:51:18.220Z,13.50
2023-04-13T08:53:44.746Z,13.90
2023-04-13T08:56:14.673Z,14.50
2023-04-13T08:58:42.934Z,15.20
2023-04-13T09:01:13.546Z,16.50
2023-04-13T09:03:46.015Z,17.90
2023-04-13T09:06:13.165Z,18.40
2023-04-13T09:11:07.890Z,17.60
2023-04-13T09:13:34.587Z,17.30
2023-04-13T09:16:02.685Z,17.30
2023-04-13T09:18:29.365Z,17.30
2023-04-13T09:20:56.821Z,17.20
2023-04-13T09:23:23.396Z,16.80
2023-04-13T09:25:50.378Z,16.50
2023-04-13T09:28:20.092Z,16.10
2023-04-13T09:30:47.240Z,16.00
2023-04-13T09:33:15.688Z,15.80
2023-04-13T09:35:42.640Z,15.70
2023-04-13T09:38:11.705Z,15.60
2023-04-13T09:40:47.741Z,13.00
2023-04-13T09:43:14.324Z,15.40
2023-04-13T09:45:44.351Z,15.70
2023-04-13T09:48:21.392Z,16.10
2023-04-13T09:51:05.476Z,16.40
2023-04-13T09:53:50.129Z,16.70
2023-04-13T09:56:17.225Z,17.10
2023-04-13T09:58:44.923Z,17.10
2023-04-13T10:01:12.050Z,17.30
2023-04-13T10:03:38.777Z,17.80
2023-04-13T10:06:06.533Z,18.40
2023-04-13T10:08:38.147Z,18.20
2023-04-13T10:11:08.465Z,18.10
2023-04-13T10:13:37.143Z,17.80
2023-04-13T10:16:12.944Z,17.50
2023-04-13T10:18:57.983Z,17.20
2023-04-13T10:21:26.482Z,16.70
2023-04-13T10:23:53.048Z,16.40
2023-04-13T10:26:30.412Z,16.20
2023-04-13T10:28:57.857Z,16.00
2023-04-13T10:31:36.710Z,15.70
2023-04-13T10:34:04.309Z,16.90
2023-04-13T10:36:41.806Z,15.70
2023-04-13T10:39:11.571Z,15.80
2023-04-13T10:41:38.614Z,16.10
2023-04-13T10:44:06.425Z,16.60
2023-04-13T10:46:36.496Z,16.60
2023-04-13T10:49:03.852Z,16.90
2023-04-13T10:51:40.915Z,16.30
2023-04-13T10:54:08.373Z,15.80
2023-04-13T10:56:35.490Z,15.60
2023-04-13T10:59:02.424Z,15.60
2023-04-13T11:01:31.615Z,15.80
2023-04-13T11:04:07.726Z,16.10
2023-04-13T11:06:39.377Z,16.10
2023-04-13T11:09:07.346Z,16.00
2023-04-13T11:11:35.909Z,15.90
2023-04-13T11:14:03.652Z,16.10
2023-04-13T11:16:30.541Z,16.00
2023-04-13T11:19:01.525Z,17.20
2023-04-13T11:21:31.785Z,17.00
2023-04-13T11:24:02.393Z,16.70
2023-04-13T11:26:34.124Z,17.10
2023-04-13T11:29:01.970Z,18.00
2023-04-13T11:31:36.261Z,18.90
2023-04-13T11:34:06.031Z,19.40
2023-04-13T11:36:33.519Z,18.00
2023-04-13T11:39:01.976Z,19.10
2023-04-13T11:41:30.087Z,19.20
2023-04-13T11:43:57.156Z,19.10
2023-04-13T11:46:25.669Z,18.80
2023-04-13T11:48:52.593Z,18.50
2023-04-13T11:51:20.354Z,18.10
2023-04-13T11:53:47.181Z,17.50
2023-04-13T11:56:14.559Z,17.00
2023-04-13T11:58:42.647Z,16.40
2023-04-13T12:01:14.293Z,15.90
2023-04-13T12:06:17.594Z,16.40
2023-04-13T12:08:46.681Z,16.90
2023-04-13T12:11:40.560Z,17.40
2023-04-13T12:14:09.975Z,17.90
2023-04-13T12:19:12.806Z,18.40
2023-04-13T12:21:50.062Z,18.10
2023-04-13T12:24:16.851Z,18.00
2023-04-13T12:27:17.044Z,17.40
2023-04-13T12:29:30.404Z,17.10
2023-04-13T12:32:01.766Z,16.60
2023-04-13T12:34:28.714Z,16.50
2023-04-13T12:36:55.376Z,16.20
2023-04-13T12:39:21.952Z,16.10
2023-04-13T12:41:48.542Z,15.60
2023-04-13T12:44:15.218Z,15.20
2023-04-13T12:46:43.058Z,15.00
2023-04-13T12:49:09.702Z,14.90
2023-04-13T12:51:36.294Z,15.00
2023-04-13T12:54:03.000Z,14.90
2023-04-13T12:56:30.806Z,14.90
2023-04-13T12:59:00.046Z,14.70
2023-04-13T13:01:26.750Z,14.70
2023-04-13T13:03:53.423Z,14.60
2023-04-13T13:06:20.052Z,14.50
2023-04-13T13:08:46.589Z,14.50
2023-04-13T13:11:13.935Z,14.40
2023-04-13T13:13:40.784Z,14.30
2023-04-13T13:16:07.484Z,14.20
2023-04-13T13:18:49.135Z,14.20
2023-04-13T13:21:21.710Z,14.20
2023-04-13T13:23:48.292Z,14.10
2023-04-13T13:28:44.804Z,14.20
2023-04-13T13:31:12.743Z,14.40
2023-04-13T13:33:39.517Z,14.60
2023-04-13T13:36:08.293Z,14.70
2023-04-13T13:38:36.521Z,14.80
2023-04-13T13:41:03.565Z,15.00
2023-04-13T13:43:30.336Z,14.90
2023-04-13T13:45:57.108Z,15.00
2023-04-13T13:48:24.088Z,15.10
2023-04-13T13:50:50.827Z,15.20
2023-04-13T13:53:17.383Z,15.20
2023-04-13T13:55:44.028Z,15.20
2023-04-13T13:58:10.611Z,15.30
2023-04-13T14:00:37.981Z,15.10
2023-04-13T14:03:04.665Z,15.10
2023-04-13T14:05:32.192Z,15.10
2023-04-13T14:07:58.796Z,15.20
2023-04-13T14:10:25.703Z,15.20
2023-04-13T14:12:52.997Z,15.30
2023-04-13T14:15:19.582Z,15.40
2023-04-13T14:17:55.433Z,15.40
2023-04-13T14:20:33.738Z,15.30
2023-04-13T14:23:00.551Z,15.30
2023-04-13T14:25:27.081Z,15.50
2023-04-13T14:27:53.641Z,15.70
2023-04-13T14:30:21.959Z,15.60
2023-04-13T14:32:49.265Z,15.70
2023-04-13T14:35:16.220Z,15.40
2023-04-13T14:37:42.806Z,15.40
2023-04-13T14:40:14.417Z,15.40
2023-04-13T14:42:41.116Z,15.20
2023-04-13T14:45:10.449Z,14.90
2023-04-13T14:47:37.434Z,15.00
2023-04-13T14:50:04.545Z,15.00
2023-04-13T14:52:31.572Z,15.00
2023-04-13T14:54:58.144Z,14.90
2023-04-13T14:57:24.900Z,14.90
2023-04-13T14:59:53.055Z,15.00
2023-04-13T15:02:21.026Z,14.90
2023-04-13T15:04:48.729Z,14.80
2023-04-13T15:07:15.720Z,14.80
2023-04-13T15:09:42.335Z,15.00
2023-04-13T15:12:12.738Z,14.80
2023-04-13T15:14:40.597Z,14.50
2023-04-13T15:17:09.642Z,14.50
2023-04-13T15:19:36.225Z,14.50
2023-04-13T15:22:02.836Z,14.50
2023-04-13T15:24:29.436Z,14.70
2023-04-13T15:26:56.032Z,14.80
2023-04-13T15:29:23.644Z,14.90
2023-04-13T15:31:51.867Z,14.80
2023-04-13T15:34:18.466Z,14.80
2023-04-13T15:36:45.057Z,14.70
2023-04-13T15:39:11.621Z,14.60
2023-04-13T15:41:38.157Z,14.70
2023-04-13T15:44:05.198Z,14.50
2023-04-13T15:46:32.280Z,14.30
2023-04-13T15:48:59.658Z,14.20
2023-04-13T15:51:27.704Z,14.10
2023-04-13T15:53:54.249Z,14.10
2023-04-13T15:56:21.249Z,13.80
2023-04-13T15:58:48.641Z,13.80
2023-04-13T16:01:15.302Z,13.70
2023-04-13T16:03:42.133Z,13.50
2023-04-13T16:06:09.702Z,13.50
2023-04-13T16:08:36.402Z,13.40
2023-04-13T16:11:03.294Z,13.40
2023-04-13T16:13:47.387Z,13.30
2023-04-13T16:16:15.782Z,13.30
2023-04-13T16:18:42.353Z,13.40
2023-04-13T16:21:10.883Z,13.30
2023-04-13T16:23:38.236Z,13.40
2023-04-13T16:26:05.171Z,13.40
2023-04-13T16:28:31.821Z,14.80
2023-04-13T16:30:59.000Z,15.70
2023-04-13T16:33:25.671Z,16.00
2023-04-13T16:35:52.571Z,16.50
2023-04-13T16:38:19.158Z,16.80
2023-04-13T16:40:45.837Z,17.00
2023-04-13T16:43:12.591Z,17.00
2023-04-13T16:45:39.145Z,16.90
2023-04-13T16:48:06.315Z,16.80
2023-04-13T16:50:32.906Z,17.00
2023-04-13T16:52:59.611Z,17.10
2023-04-13T16:55:28.741Z,17.20
2023-04-13T16:57:55.705Z,17.10
2023-04-13T17:00:22.583Z,16.60
2023-04-13T17:02:49.399Z,16.50
2023-04-13T17:05:16.224Z,16.80
2023-04-13T17:07:43.784Z,16.70
2023-04-13T17:10:12.497Z,16.60
2023-04-13T17:12:39.301Z,16.00
2023-04-13T17:15:06.338Z,15.90
2023-04-13T17:17:33.969Z,16.40
2023-04-13T17:20:00.558Z,16.40
2023-04-13T17:22:27.291Z,16.00
2023-04-13T17:24:54.234Z,16.00
2023-04-13T17:27:20.820Z,16.30
2023-04-13T17:29:50.067Z,16.20
2023-04-13T17:32:16.933Z,15.40
2023-04-13T17:34:44.729Z,14.40
2023-04-13T17:37:12.221Z,13.70
2023-04-13T17:39:42.197Z,13.30
2023-04-13T17:44:37.061Z,12.40
2023-04-13T17:47:03.633Z,12.00
2023-04-13T17:49:30.214Z,11.80
2023-04-13T17:56:52.620Z,11.40
2023-04-13T17:59:19.215Z,11.10
2023-04-13T18:01:45.905Z,11.00
2023-04-13T18:04:13.499Z,10.90
2023-04-13T18:06:40.787Z,10.70
2023-04-13T18:09:09.801Z,10.50
2023-04-13T18:11:36.365Z,10.50
2023-04-13T18:36:15.383Z,9.80
2023-04-13T18:46:03.229Z,9.60
2023-04-13T18:48:30.741Z,9.60
2023-04-13T18:50:57.360Z,9.60
2023-04-13T18:53:23.914Z,9.50
2023-04-13T19:00:46.398Z,9.50
2023-04-13T19:03:13.954Z,9.50
2023-04-13T19:05:40.755Z,9.60
2023-04-13T19:08:09.847Z,9.20
2023-04-13T19:10:36.472Z,9.10
2023-04-13T19:13:03.268Z,9.00
2023-04-13T19:15:30.748Z,9.00
2023-04-13T19:17:57.500Z,8.80
2023-04-13T19:20:24.851Z,8.80
2023-04-13T19:22:51.435Z,5.70
2023-04-13T19:25:18.020Z,8.80
2023-04-13T19:27:45.607Z,8.80
2023-04-13T19:30:14.868Z,8.80
2023-04-13T19:32:42.884Z,8.80
2023-04-13T19:35:10.574Z,8.70
2023-04-13T19:37:38.067Z,8.80
2023-04-13T19:40:09.545Z,8.80
2023-04-13T19:42:36.416Z,8.80
2023-04-13T19:45:03.586Z,8.80
2023-04-13T19:47:30.378Z,8.60
2023-04-13T19:49:57.233Z,8.70
2023-04-13T19:52:24.980Z,8.80
2023-04-13T19:54:51.898Z,8.70
2023-04-13T19:57:18.703Z,8.70
2023-04-13T19:59:45.293Z,9.30
2023-04-13T20:02:12.231Z,8.70
2023-04-13T20:04:40.128Z,8.70
2023-04-13T20:07:07.111Z,8.80
2023-04-13T20:09:33.741Z,8.70
2023-04-13T20:12:00.735Z,9.40
2023-04-13T20:14:27.354Z,8.70
2023-04-13T20:16:53.997Z,8.70
2023-04-13T20:19:21.137Z,8.70
2023-04-13T20:21:47.855Z,8.70
2023-04-13T20:24:14.532Z,8.60
2023-04-13T20:26:42.113Z,8.60
2023-04-13T20:29:08.761Z,8.60
2023-04-13T20:31:36.736Z,8.70
2023-04-13T20:34:03.916Z,8.70
2023-04-13T20:36:30.982Z,8.70
2023-04-13T20:39:00.526Z,8.70
2023-04-13T20:41:29.809Z,8.60
2023-04-13T20:43:56.941Z,9.60
2023-04-13T20:46:27.003Z,8.50
2023-04-13T20:48:53.651Z,8.50
2023-04-13T20:51:22.753Z,8.70
2023-04-13T20:53:50.049Z,8.60
2023-04-13T20:56:19.420Z,8.60
2023-04-13T20:58:47.715Z,8.50
2023-04-13T21:01:15.367Z,8.50
2023-04-13T21:03:42.214Z,8.50
2023-04-13T21:06:08.930Z,8.50
2023-04-13T21:08:35.633Z,8.50
2023-04-13T21:11:02.233Z,8.50
2023-04-13T21:13:30.474Z,8.40
2023-04-13T21:15:57.109Z,8.80
2023-04-13T21:18:23.724Z,8.50
2023-04-13T21:20:50.388Z,8.40
2023-04-13T21:23:17.244Z,8.40
2023-04-13T21:25:44.587Z,8.40
2023-04-13T21:28:11.390Z,8.40
2023-04-13T21:30:37.940Z,8.30
2023-04-13T21:33:04.547Z,8.40
2023-04-13T21:35:31.097Z,8.70
2023-04-13T21:37:57.771Z,8.30
2023-04-13T21:40:24.864Z,8.20
2023-04-13T21:42:51.440Z,8.20
2023-04-13T21:45:18.220Z,8.10
2023-04-13T21:47:47.047Z,8.10
2023-04-13T21:50:13.669Z,8.10
2023-04-13T21:52:40.490Z,8.20
2023-04-13T21:55:07.164Z,8.10
2023-04-13T21:57:33.708Z,8.10
2023-04-13T22:00:00.260Z,8.10
2023-04-13T22:02:27.042Z,8.10
2023-04-13T22:04:54.079Z,8.10
2023-04-13T22:07:31.496Z,8.10
2023-04-13T22:10:06.798Z,8.00
2023-04-13T22:12:33.395Z,8.00
2023-04-13T22:14:59.952Z,7.70
2023-04-13T22:17:26.560Z,8.00
2023-04-13T22:19:53.227Z,4.70
2023-04-13T22:22:19.996Z,8.20
2023-04-13T22:24:46.995Z,7.70
2023-04-13T22:27:13.617Z,8.00
2023-04-13T22:29:40.284Z,8.30
2023-04-13T22:32:06.827Z,7.90
2023-04-13T22:34:34.640Z,8.00
2023-04-13T22:37:01.467Z,8.10
2023-04-13T22:39:31.016Z,7.90
2023-04-13T22:41:58.681Z,7.90
2023-04-13T22:44:25.270Z,7.90
2023-04-13T22:46:53.569Z,7.90
2023-04-13T22:49:20.200Z,7.90
2023-04-13T22:51:46.801Z,7.90
2023-04-13T22:54:13.419Z,7.80
2023-04-13T22:56:39.976Z,7.80
2023-04-13T22:59:06.502Z,7.80
2023-04-13T23:01:33.081Z,7.80
2023-04-13T23:03:59.970Z,7.70
2023-04-13T23:06:27.577Z,7.70
2023-04-13T23:08:58.298Z,7.70
2023-04-13T23:11:25.154Z,7.70
2023-04-13T23:13:55.069Z,7.70
2023-04-13T23:16:21.808Z,7.60
2023-04-13T23:18:48.500Z,7.60
2023-04-13T23:21:15.074Z,7.60
2023-04-13T23:23:41.828Z,7.60
2023-04-13T23:26:08.704Z,7.60
2023-04-13T23:28:35.279Z,7.50
2023-04-13T23:31:02.464Z,7.50
2023-04-13T23:33:30.053Z,7.60
2023-04-13T23:35:56.600Z,7.40
2023-04-13T23:38:23.256Z,7.40
2023-04-13T23:40:49.792Z,7.40
2023-04-13T23:43:16.422Z,7.40
2023-04-13T23:45:42.960Z,7.40
2023-04-13T23:48:09.548Z,7.50
2023-04-13T23:50:36.108Z,7.40
2023-04-13T23:53:03.637Z,7.40
2023-04-13T23:55:30.196Z,8.00
2023-04-13T23:57:57.067Z,7.50
